Terminal Aerodrome Forecast
Issued by NWS

Home | Current Version | Previous Version | Text Only | Print | Product List | Glossary On
Versions: 1 2 3 4 5 6 7 8 9 10 11 12 13 14 15 16 17 18
000
FTUS41 KBGM 131700
TAFITH
TAF
KITH 131740Z 1318/1418 20012G20KT P6SM -SHRA BKN050
      TEMPO 1320/1323 27012G30KT 2SM -TSRA OVC035CB
     FM140000 22005KT P6SM BKN040
     FM140700 19004KT 4SM BR SCT015
     FM141300 20004KT P6SM SCT050=

USA.gov is the U.S. government's official web portal to all federal, state and local government web resources and services.